sensor_id;sensor_type;location;lat;lon;timestamp;pressure;altitude;pressure_sealevel;temperature;humidity
46464;BME280;32161;48.148;-1.554;2023-10-08T00:00:33;101841.81;;;14.31;100.00
46464;BME280;32161;48.148;-1.554;2023-10-08T00:03:12;101847.88;;;14.33;100.00
46464;BME280;32161;48.148;-1.554;2023-10-08T00:05:40;101848.09;;;14.32;100.00
46464;BME280;32161;48.148;-1.554;2023-10-08T00:08:08;101850.59;;;14.33;100.00
46464;BME280;32161;48.148;-1.554;2023-10-08T00:10:38;101856.94;;;14.34;100.00
46464;BME280;32161;48.148;-1.554;2023-10-08T00:13:07;101858.81;;;14.33;100.00
46464;BME280;32161;48.148;-1.554;2023-10-08T00:15:35;101860.72;;;14.33;100.00
46464;BME280;32161;48.148;-1.554;2023-10-08T00:18:04;101863.69;;;14.31;100.00
46464;BME280;32161;48.148;-1.554;2023-10-08T00:20:34;101862.03;;;14.30;100.00
46464;BME280;32161;48.148;-1.554;2023-10-08T00:23:08;101868.53;;;14.29;100.00
46464;BME280;32161;48.148;-1.554;2023-10-08T00:25:38;101870.06;;;14.25;100.00
46464;BME280;32161;48.148;-1.554;2023-10-08T00:28:08;101865.28;;;14.21;100.00
46464;BME280;32161;48.148;-1.554;2023-10-08T00:30:40;101864.00;;;14.23;100.00
46464;BME280;32161;48.148;-1.554;2023-10-08T00:33:08;101866.56;;;14.18;100.00
46464;BME280;32161;48.148;-1.554;2023-10-08T00:35:38;101862.16;;;14.17;100.00
46464;BME280;32161;48.148;-1.554;2023-10-08T00:38:07;101862.16;;;14.17;100.00
46464;BME280;32161;48.148;-1.554;2023-10-08T00:40:42;101869.53;;;14.16;100.00
46464;BME280;32161;48.148;-1.554;2023-10-08T00:43:29;101873.16;;;14.10;100.00
46464;BME280;32161;48.148;-1.554;2023-10-08T00:45:58;101871.72;;;14.08;100.00
46464;BME280;32161;48.148;-1.554;2023-10-08T00:48:27;101869.44;;;14.05;100.00
46464;BME280;32161;48.148;-1.554;2023-10-08T00:51:03;101865.47;;;14.01;100.00
46464;BME280;32161;48.148;-1.554;2023-10-08T00:53:41;101869.09;;;13.95;100.00
46464;BME280;32161;48.148;-1.554;2023-10-08T00:56:11;101865.78;;;13.92;100.00
46464;BME280;32161;48.148;-1.554;2023-10-08T00:58:41;101864.56;;;13.88;100.00
46464;BME280;32161;48.148;-1.554;2023-10-08T01:01:12;101862.03;;;13.87;100.00
46464;BME280;32161;48.148;-1.554;2023-10-08T01:03:42;101865.59;;;13.87;100.00
46464;BME280;32161;48.148;-1.554;2023-10-08T01:06:11;101863.94;;;13.86;100.00
46464;BME280;32161;48.148;-1.554;2023-10-08T01:08:41;101863.53;;;13.83;100.00
46464;BME280;32161;48.148;-1.554;2023-10-08T01:11:19;101855.44;;;13.76;100.00
46464;BME280;32161;48.148;-1.554;2023-10-08T01:13:48;101860.25;;;13.74;100.00
46464;BME280;32161;48.148;-1.554;2023-10-08T01:16:15;101850.00;;;13.70;100.00
46464;BME280;32161;48.148;-1.554;2023-10-08T01:18:44;101855.69;;;13.68;100.00
46464;BME280;32161;48.148;-1.554;2023-10-08T01:21:18;101851.28;;;13.67;100.00
46464;BME280;32161;48.148;-1.554;2023-10-08T01:24:02;101853.88;;;13.62;100.00
46464;BME280;32161;48.148;-1.554;2023-10-08T01:26:33;101854.94;;;13.61;100.00
46464;BME280;32161;48.148;-1.554;2023-10-08T01:29:08;101857.03;;;13.59;100.00
46464;BME280;32161;48.148;-1.554;2023-10-08T01:31:45;101844.66;;;13.56;100.00
46464;BME280;32161;48.148;-1.554;2023-10-08T01:34:14;101847.63;;;13.55;100.00
46464;BME280;32161;48.148;-1.554;2023-10-08T01:36:43;101839.66;;;13.53;100.00
46464;BME280;32161;48.148;-1.554;2023-10-08T01:39:13;101851.63;;;13.52;100.00
46464;BME280;32161;48.148;-1.554;2023-10-08T01:41:44;101851.84;;;13.51;100.00
46464;BME280;32161;48.148;-1.554;2023-10-08T01:44:13;101840.94;;;13.51;100.00
46464;BME280;32161;48.148;-1.554;2023-10-08T01:46:40;101848.88;;;13.52;100.00
46464;BME280;32161;48.148;-1.554;2023-10-08T01:49:08;101835.47;;;13.51;100.00
46464;BME280;32161;48.148;-1.554;2023-10-08T01:51:40;101819.06;;;13.51;100.00
46464;BME280;32161;48.148;-1.554;2023-10-08T01:54:14;101833.78;;;13.50;100.00
46464;BME280;32161;48.148;-1.554;2023-10-08T01:56:44;101832.97;;;13.49;100.00
46464;BME280;32161;48.148;-1.554;2023-10-08T01:59:13;101826.88;;;13.47;100.00
46464;BME280;32161;48.148;-1.554;2023-10-08T02:01:42;101820.78;;;13.45;100.00
46464;BME280;32161;48.148;-1.554;2023-10-08T02:04:11;101828.16;;;13.44;100.00
46464;BME280;32161;48.148;-1.554;2023-10-08T02:06:39;101821.25;;;13.42;100.00
46464;BME280;32161;48.148;-1.554;2023-10-08T02:09:07;101830.47;;;13.41;100.00
46464;BME280;32161;48.148;-1.554;2023-10-08T02:11:47;101821.69;;;13.39;100.00
46464;BME280;32161;48.148;-1.554;2023-10-08T02:14:17;101822.38;;;13.34;100.00
46464;BME280;32161;48.148;-1.554;2023-10-08T02:16:46;101817.94;;;13.33;100.00
46464;BME280;32161;48.148;-1.554;2023-10-08T02:19:15;101825.53;;;13.31;100.00
46464;BME280;32161;48.148;-1.554;2023-10-08T02:21:44;101815.06;;;13.28;100.00
46464;BME280;32161;48.148;-1.554;2023-10-08T02:24:13;101815.50;;;13.25;100.00
46464;BME280;32161;48.148;-1.554;2023-10-08T02:26:40;101803.31;;;13.21;100.00
46464;BME280;32161;48.148;-1.554;2023-10-08T02:29:11;101802.09;;;13.17;100.00
46464;BME280;32161;48.148;-1.554;2023-10-08T02:31:39;101810.09;;;13.12;100.00
46464;BME280;32161;48.148;-1.554;2023-10-08T02:34:07;101804.66;;;13.12;100.00
46464;BME280;32161;48.148;-1.554;2023-10-08T02:36:35;101800.03;;;13.12;100.00
46464;BME280;32161;48.148;-1.554;2023-10-08T02:39:04;101804.41;;;13.13;100.00
46464;BME280;32161;48.148;-1.554;2023-10-08T02:41:40;101796.84;;;13.15;100.00
46464;BME280;32161;48.148;-1.554;2023-10-08T02:44:10;101801.25;;;13.16;100.00
46464;BME280;32161;48.148;-1.554;2023-10-08T02:46:40;101794.97;;;13.16;100.00
46464;BME280;32161;48.148;-1.554;2023-10-08T02:49:09;101793.28;;;13.15;100.00
46464;BME280;32161;48.148;-1.554;2023-10-08T02:51:39;101788.88;;;13.14;100.00
46464;BME280;32161;48.148;-1.554;2023-10-08T02:54:08;101782.56;;;13.13;100.00
46464;BME280;32161;48.148;-1.554;2023-10-08T02:56:44;101784.47;;;13.13;100.00
46464;BME280;32161;48.148;-1.554;2023-10-08T02:59:14;101786.59;;;13.11;100.00
46464;BME280;32161;48.148;-1.554;2023-10-08T03:01:42;101769.38;;;13.10;100.00
46464;BME280;32161;48.148;-1.554;2023-10-08T03:04:10;101783.47;;;13.07;100.00
46464;BME280;32161;48.148;-1.554;2023-10-08T03:06:45;101784.13;;;13.03;100.00
46464;BME280;32161;48.148;-1.554;2023-10-08T03:09:17;101785.63;;;12.99;100.00
46464;BME280;32161;48.148;-1.554;2023-10-08T03:11:47;101781.66;;;12.94;100.00
46464;BME280;32161;48.148;-1.554;2023-10-08T03:14:18;101789.25;;;12.92;100.00
46464;BME280;32161;48.148;-1.554;2023-10-08T03:16:50;101789.69;;;12.89;100.00
46464;BME280;32161;48.148;-1.554;2023-10-08T03:19:22;101782.56;;;12.88;100.00
46464;BME280;32161;48.148;-1.554;2023-10-08T03:21:51;101775.88;;;12.84;100.00
46464;BME280;32161;48.148;-1.554;2023-10-08T03:24:22;101774.19;;;12.83;100.00
46464;BME280;32161;48.148;-1.554;2023-10-08T03:27:05;101774.66;;;12.80;100.00
46464;BME280;32161;48.148;-1.554;2023-10-08T03:29:35;101769.00;;;12.75;100.00
46464;BME280;32161;48.148;-1.554;2023-10-08T03:32:08;101771.06;;;12.80;100.00
46464;BME280;32161;48.148;-1.554;2023-10-08T03:34:44;101780.97;;;12.74;100.00
46464;BME280;32161;48.148;-1.554;2023-10-08T03:37:14;101775.75;;;12.73;100.00
46464;BME280;32161;48.148;-1.554;2023-10-08T03:39:48;101777.25;;;12.68;100.00
46464;BME280;32161;48.148;-1.554;2023-10-08T03:42:22;101767.19;;;12.62;100.00
46464;BME280;32161;48.148;-1.554;2023-10-08T03:44:52;101765.13;;;12.58;100.00
46464;BME280;32161;48.148;-1.554;2023-10-08T03:47:22;101772.69;;;12.49;100.00
46464;BME280;32161;48.148;-1.554;2023-10-08T03:49:52;101779.88;;;12.43;100.00
46464;BME280;32161;48.148;-1.554;2023-10-08T03:52:20;101779.03;;;12.43;100.00
46464;BME280;32161;48.148;-1.554;2023-10-08T03:54:51;101774.84;;;12.40;100.00
46464;BME280;32161;48.148;-1.554;2023-10-08T03:57:31;101781.59;;;12.38;100.00
46464;BME280;32161;48.148;-1.554;2023-10-08T04:00:11;101778.63;;;12.39;100.00
46464;BME280;32161;48.148;-1.554;2023-10-08T04:02:44;101779.28;;;12.41;100.00
46464;BME280;32161;48.148;-1.554;2023-10-08T04:05:20;101783.66;;;12.42;100.00
46464;BME280;32161;48.148;-1.554;2023-10-08T04:07:54;101774.00;;;12.40;100.00
46464;BME280;32161;48.148;-1.554;2023-10-08T04:10:43;101778.22;;;12.36;100.00
46464;BME280;32161;48.148;-1.554;2023-10-08T04:13:27;101781.19;;;12.34;100.00
46464;BME280;32161;48.148;-1.554;2023-10-08T04:15:58;101775.72;;;12.34;100.00
46464;BME280;32161;48.148;-1.554;2023-10-08T04:18:25;101775.72;;;12.34;100.00
46464;BME280;32161;48.148;-1.554;2023-10-08T04:20:53;101766.91;;;12.32;100.00
46464;BME280;32161;48.148;-1.554;2023-10-08T04:23:39;101767.56;;;12.34;100.00
46464;BME280;32161;48.148;-1.554;2023-10-08T04:26:10;101759.81;;;12.31;100.00
46464;BME280;32161;48.148;-1.554;2023-10-08T04:28:38;101766.91;;;12.32;100.00
46464;BME280;32161;48.148;-1.554;2023-10-08T04:31:08;101756.91;;;12.26;100.00
46464;BME280;32161;48.148;-1.554;2023-10-08T04:33:44;101757.31;;;12.23;100.00
46464;BME280;32161;48.148;-1.554;2023-10-08T04:36:13;101758.34;;;12.22;100.00
46464;BME280;32161;48.148;-1.554;2023-10-08T04:38:46;101759.41;;;12.21;100.00
46464;BME280;32161;48.148;-1.554;2023-10-08T04:41:15;101765.75;;;12.15;100.00
46464;BME280;32161;48.148;-1.554;2023-10-08T04:43:45;101763.22;;;12.13;100.00
46464;BME280;32161;48.148;-1.554;2023-10-08T04:46:17;101770.78;;;12.11;100.00
46464;BME280;32161;48.148;-1.554;2023-10-08T04:49:00;101767.22;;;12.11;100.00
46464;BME280;32161;48.148;-1.554;2023-10-08T04:51:33;101773.53;;;12.11;100.00
46464;BME280;32161;48.148;-1.554;2023-10-08T04:54:10;101778.97;;;12.11;100.00
46464;BME280;32161;48.148;-1.554;2023-10-08T04:56:43;101780.00;;;12.10;100.00
46464;BME280;32161;48.148;-1.554;2023-10-08T04:59:10;101776.44;;;12.10;100.00
46464;BME280;32161;48.148;-1.554;2023-10-08T05:01:40;101782.13;;;12.08;100.00
46464;BME280;32161;48.148;-1.554;2023-10-08T05:04:15;101785.50;;;12.04;100.00
46464;BME280;32161;48.148;-1.554;2023-10-08T05:06:53;101788.63;;;12.01;100.00
46464;BME280;32161;48.148;-1.554;2023-10-08T05:09:56;101792.22;;;11.94;100.00
46464;BME280;32161;48.148;-1.554;2023-10-08T05:12:43;101786.34;;;11.91;100.00
46464;BME280;32161;48.148;-1.554;2023-10-08T05:15:16;101794.75;;;11.89;100.00
46464;BME280;32161;48.148;-1.554;2023-10-08T05:18:00;101791.59;;;11.86;100.00
46464;BME280;32161;48.148;-1.554;2023-10-08T05:20:39;101794.72;;;11.83;100.00
46464;BME280;32161;48.148;-1.554;2023-10-08T05:23:25;101790.13;;;11.83;100.00
46464;BME280;32161;48.148;-1.554;2023-10-08T05:26:11;101797.28;;;11.84;100.00
46464;BME280;32161;48.148;-1.554;2023-10-08T05:28:47;101801.88;;;11.84;100.00
46464;BME280;32161;48.148;-1.554;2023-10-08T05:31:28;101795.38;;;11.85;100.00
46464;BME280;32161;48.148;-1.554;2023-10-08T05:34:13;101784.28;;;11.86;100.00
46464;BME280;32161;48.148;-1.554;2023-10-08T05:36:58;101798.13;;;11.85;100.00
46464;BME280;32161;48.148;-1.554;2023-10-08T05:39:59;101798.94;;;11.85;100.00
46464;BME280;32161;48.148;-1.554;2023-10-08T05:42:45;101797.28;;;11.84;100.00
46464;BME280;32161;48.148;-1.554;2023-10-08T05:45:13;101802.72;;;11.84;100.00
46464;BME280;32161;48.148;-1.554;2023-10-08T05:47:56;101802.72;;;11.84;100.00
46464;BME280;32161;48.148;-1.554;2023-10-08T05:50:41;101802.72;;;11.84;100.00
46464;BME280;32161;48.148;-1.554;2023-10-08T05:53:23;101806.28;;;11.85;100.00
46464;BME280;32161;48.148;-1.554;2023-10-08T05:56:09;101806.91;;;11.80;100.00
46464;BME280;32161;48.148;-1.554;2023-10-08T05:58:56;101811.09;;;11.76;100.00
46464;BME280;32161;48.148;-1.554;2023-10-08T06:01:41;101812.53;;;11.72;100.00
46464;BME280;32161;48.148;-1.554;2023-10-08T06:04:12;101797.66;;;11.68;100.00
46464;BME280;32161;48.148;-1.554;2023-10-08T06:06:57;101800.19;;;11.69;100.00
46464;BME280;32161;48.148;-1.554;2023-10-08T06:09:39;101793.94;;;11.69;100.00
46464;BME280;32161;48.148;-1.554;2023-10-08T06:12:06;101798.91;;;11.72;100.00
46464;BME280;32161;48.148;-1.554;2023-10-08T06:14:47;101798.91;;;11.72;100.00
46464;BME280;32161;48.148;-1.554;2023-10-08T06:17:34;101800.63;;;11.73;100.00
46464;BME280;32161;48.148;-1.554;2023-10-08T06:20:24;101792.03;;;11.76;100.00
46464;BME280;32161;48.148;-1.554;2023-10-08T06:22:53;101796.19;;;11.79;100.00
46464;BME280;32161;48.148;-1.554;2023-10-08T06:25:27;101797.03;;;11.79;100.00
46464;BME280;32161;48.148;-1.554;2023-10-08T06:27:56;101794.31;;;11.79;100.00
46464;BME280;32161;48.148;-1.554;2023-10-08T06:30:26;101794.72;;;11.83;100.00
46464;BME280;32161;48.148;-1.554;2023-10-08T06:32:58;101797.44;;;11.83;100.00
46464;BME280;32161;48.148;-1.554;2023-10-08T06:35:27;101806.06;;;11.86;100.00
46464;BME280;32161;48.148;-1.554;2023-10-08T06:37:54;101805.00;;;11.87;100.00
46464;BME280;32161;48.148;-1.554;2023-10-08T06:40:26;101803.97;;;11.88;100.00
46464;BME280;32161;48.148;-1.554;2023-10-08T06:43:08;101807.72;;;11.87;100.00
46464;BME280;32161;48.148;-1.554;2023-10-08T06:45:44;101808.97;;;11.91;100.00
46464;BME280;32161;48.148;-1.554;2023-10-08T06:48:14;101803.09;;;11.94;100.00
46464;BME280;32161;48.148;-1.554;2023-10-08T06:50:48;101810.03;;;11.97;100.00
46464;BME280;32161;48.148;-1.554;2023-10-08T06:53:16;101807.91;;;11.99;100.00
46464;BME280;32161;48.148;-1.554;2023-10-08T06:55:45;101810.22;;;12.02;100.00
46464;BME280;32161;48.148;-1.554;2023-10-08T06:58:14;101815.00;;;12.07;100.00
46464;BME280;32161;48.148;-1.554;2023-10-08T07:00:44;101814.59;;;12.10;100.00
46464;BME280;32161;48.148;-1.554;2023-10-08T07:03:16;101815.84;;;12.14;100.00
46464;BME280;32161;48.148;-1.554;2023-10-08T07:05:46;101821.69;;;12.17;100.00
46464;BME280;32161;48.148;-1.554;2023-10-08T07:08:26;101829.47;;;12.20;100.00
46464;BME280;32161;48.148;-1.554;2023-10-08T07:10:55;101826.06;;;12.25;100.00
46464;BME280;32161;48.148;-1.554;2023-10-08T07:13:25;101832.78;;;12.29;100.00
46464;BME280;32161;48.148;-1.554;2023-10-08T07:15:57;101824.41;;;12.31;100.00
46464;BME280;32161;48.148;-1.554;2023-10-08T07:18:26;101825.84;;;12.33;100.00
46464;BME280;32161;48.148;-1.554;2023-10-08T07:20:57;101830.88;;;12.36;100.00
46464;BME280;32161;48.148;-1.554;2023-10-08T07:23:27;101834.00;;;12.40;100.00
46464;BME280;32161;48.148;-1.554;2023-10-08T07:26:02;101833.56;;;12.43;100.00
46464;BME280;32161;48.148;-1.554;2023-10-08T07:28:40;101835.22;;;12.51;100.00
46464;BME280;32161;48.148;-1.554;2023-10-08T07:31:14;101837.44;;;12.67;100.00
46464;BME280;32161;48.148;-1.554;2023-10-08T07:33:42;101826.34;;;12.68;100.00
46464;BME280;32161;48.148;-1.554;2023-10-08T07:36:11;101832.56;;;12.76;100.00
46464;BME280;32161;48.148;-1.554;2023-10-08T07:38:45;101825.00;;;12.84;100.00
46464;BME280;32161;48.148;-1.554;2023-10-08T07:41:13;101821.38;;;12.90;100.00
46464;BME280;32161;48.148;-1.554;2023-10-08T07:43:41;101835.38;;;13.01;100.00
46464;BME280;32161;48.148;-1.554;2023-10-08T07:46:09;101833.44;;;13.08;100.00
46464;BME280;32161;48.148;-1.554;2023-10-08T07:48:38;101839.47;;;13.16;100.00
46464;BME280;32161;48.148;-1.554;2023-10-08T07:51:09;101834.41;;;13.20;100.00
46464;BME280;32161;48.148;-1.554;2023-10-08T07:53:36;101839.22;;;13.25;100.00
46464;BME280;32161;48.148;-1.554;2023-10-08T07:56:05;101847.97;;;13.33;100.00
46464;BME280;32161;48.148;-1.554;2023-10-08T07:58:37;101840.97;;;13.44;100.00
46464;BME280;32161;48.148;-1.554;2023-10-08T08:01:06;101842.97;;;13.55;100.00
46464;BME280;32161;48.148;-1.554;2023-10-08T08:03:36;101844.00;;;13.61;100.00
46464;BME280;32161;48.148;-1.554;2023-10-08T08:06:07;101843.88;;;13.74;100.00
46464;BME280;32161;48.148;-1.554;2023-10-08T08:08:35;101836.44;;;13.81;100.00
46464;BME280;32161;48.148;-1.554;2023-10-08T08:11:03;101844.81;;;13.86;100.00
46464;BME280;32161;48.148;-1.554;2023-10-08T08:13:34;101854.41;;;13.96;100.00
46464;BME280;32161;48.148;-1.554;2023-10-08T08:16:02;101845.44;;;14.07;100.00
46464;BME280;32161;48.148;-1.554;2023-10-08T08:18:43;101854.25;;;14.09;100.00
46464;BME280;32161;48.148;-1.554;2023-10-08T08:21:13;101849.25;;;14.24;100.00
46464;BME280;32161;48.148;-1.554;2023-10-08T08:23:43;101855.03;;;14.34;100.00
46464;BME280;32161;48.148;-1.554;2023-10-08T08:26:15;101847.94;;;14.45;100.00
46464;BME280;32161;48.148;-1.554;2023-10-08T08:28:54;101857.09;;;14.57;100.00
46464;BME280;32161;48.148;-1.554;2023-10-08T08:31:24;101859.34;;;14.79;100.00
46464;BME280;32161;48.148;-1.554;2023-10-08T08:33:52;101860.00;;;14.93;100.00
46464;BME280;32161;48.148;-1.554;2023-10-08T08:36:24;101867.19;;;15.05;100.00
46464;BME280;32161;48.148;-1.554;2023-10-08T08:38:51;101865.09;;;15.19;100.00
46464;BME280;32161;48.148;-1.554;2023-10-08T08:41:20;101863.69;;;15.28;100.00
46464;BME280;32161;48.148;-1.554;2023-10-08T08:43:52;101857.50;;;15.33;100.00
46464;BME280;32161;48.148;-1.554;2023-10-08T08:46:32;101859.41;;;15.32;100.00
46464;BME280;32161;48.148;-1.554;2023-10-08T08:49:03;101858.59;;;15.44;100.00
46464;BME280;32161;48.148;-1.554;2023-10-08T08:51:33;101855.66;;;15.57;100.00
46464;BME280;32161;48.148;-1.554;2023-10-08T08:54:01;101864.28;;;15.72;100.00
46464;BME280;32161;48.148;-1.554;2023-10-08T08:56:34;101847.59;;;15.85;100.00
46464;BME280;32161;48.148;-1.554;2023-10-08T08:59:04;101856.28;;;15.94;100.00
46464;BME280;32161;48.148;-1.554;2023-10-08T09:01:31;101858.44;;;16.04;100.00
46464;BME280;32161;48.148;-1.554;2023-10-08T09:03:59;101849.94;;;16.17;100.00
46464;BME280;32161;48.148;-1.554;2023-10-08T09:06:32;101853.03;;;16.32;100.00
46464;BME280;32161;48.148;-1.554;2023-10-08T09:09:01;101852.91;;;16.39;100.00
46464;BME280;32161;48.148;-1.554;2023-10-08T09:11:48;101852.25;;;16.49;100.00
46464;BME280;32161;48.148;-1.554;2023-10-08T09:14:19;101857.25;;;16.64;100.00
46464;BME280;32161;48.148;-1.554;2023-10-08T09:16:47;101861.16;;;16.79;100.00
46464;BME280;32161;48.148;-1.554;2023-10-08T09:19:15;101865.78;;;16.91;99.21
46464;BME280;32161;48.148;-1.554;2023-10-08T09:22:01;101871.22;;;17.02;96.92
46464;BME280;32161;48.148;-1.554;2023-10-08T09:24:31;101859.84;;;17.11;94.18
46464;BME280;32161;48.148;-1.554;2023-10-08T09:26:59;101862.75;;;17.21;93.63
46464;BME280;32161;48.148;-1.554;2023-10-08T09:29:28;101868.13;;;17.27;93.98
46464;BME280;32161;48.148;-1.554;2023-10-08T09:31:57;101861.13;;;17.37;93.45
46464;BME280;32161;48.148;-1.554;2023-10-08T09:34:30;101869.69;;;17.40;91.09
46464;BME280;32161;48.148;-1.554;2023-10-08T09:37:00;101865.22;;;17.51;89.87
46464;BME280;32161;48.148;-1.554;2023-10-08T09:39:28;101865.91;;;17.58;89.96
46464;BME280;32161;48.148;-1.554;2023-10-08T09:42:01;101860.75;;;17.78;87.93
46464;BME280;32161;48.148;-1.554;2023-10-08T09:44:30;101861.84;;;17.77;86.17
46464;BME280;32161;48.148;-1.554;2023-10-08T09:47:03;101865.16;;;17.79;84.77
46464;BME280;32161;48.148;-1.554;2023-10-08T09:49:33;101859.88;;;17.95;83.63
46464;BME280;32161;48.148;-1.554;2023-10-08T09:52:07;101867.97;;;18.01;84.92
46464;BME280;32161;48.148;-1.554;2023-10-08T09:54:42;101862.28;;;18.08;84.10
46464;BME280;32161;48.148;-1.554;2023-10-08T09:57:11;101866.53;;;18.16;84.19
46464;BME280;32161;48.148;-1.554;2023-10-08T09:59:40;101868.53;;;18.20;84.03
46464;BME280;32161;48.148;-1.554;2023-10-08T10:02:08;101859.91;;;18.34;83.68
46464;BME280;32161;48.148;-1.554;2023-10-08T10:04:43;101852.25;;;18.41;83.27
46464;BME280;32161;48.148;-1.554;2023-10-08T10:07:14;101843.06;;;18.52;82.91
46464;BME280;32161;48.148;-1.554;2023-10-08T10:09:44;101844.78;;;18.58;82.97
46464;BME280;32161;48.148;-1.554;2023-10-08T10:12:18;101843.19;;;18.62;82.89
46464;BME280;32161;48.148;-1.554;2023-10-08T10:14:54;101842.81;;;18.75;83.51
46464;BME280;32161;48.148;-1.554;2023-10-08T10:17:25;101844.81;;;18.80;81.77
46464;BME280;32161;48.148;-1.554;2023-10-08T10:19:54;101846.03;;;18.94;80.93
46464;BME280;32161;48.148;-1.554;2023-10-08T10:22:31;101848.28;;;18.97;79.61
46464;BME280;32161;48.148;-1.554;2023-10-08T10:25:01;101840.53;;;19.21;78.44
46464;BME280;32161;48.148;-1.554;2023-10-08T10:27:30;101836.16;;;19.25;79.40
46464;BME280;32161;48.148;-1.554;2023-10-08T10:30:05;101837.53;;;19.23;81.02
46464;BME280;32161;48.148;-1.554;2023-10-08T10:32:34;101834.06;;;19.38;80.39
46464;BME280;32161;48.148;-1.554;2023-10-08T10:35:03;101837.47;;;19.50;80.54
46464;BME280;32161;48.148;-1.554;2023-10-08T10:37:34;101834.75;;;19.55;81.25
46464;BME280;32161;48.148;-1.554;2023-10-08T10:40:09;101833.22;;;19.64;81.39
46464;BME280;32161;48.148;-1.554;2023-10-08T10:42:39;101834.09;;;19.75;79.41
46464;BME280;32161;48.148;-1.554;2023-10-08T10:45:14;101831.09;;;19.77;78.54
46464;BME280;32161;48.148;-1.554;2023-10-08T10:48:02;101835.53;;;19.83;78.59
46464;BME280;32161;48.148;-1.554;2023-10-08T10:50:39;101838.94;;;19.95;77.21
46464;BME280;32161;48.148;-1.554;2023-10-08T10:53:18;101828.78;;;20.06;75.81
46464;BME280;32161;48.148;-1.554;2023-10-08T10:55:46;101836.88;;;20.22;74.05
46464;BME280;32161;48.148;-1.554;2023-10-08T10:58:25;101835.84;;;20.34;75.02
46464;BME280;32161;48.148;-1.554;2023-10-08T11:00:54;101843.06;;;20.45;74.32
46464;BME280;32161;48.148;-1.554;2023-10-08T11:03:25;101845.63;;;20.57;74.05
46464;BME280;32161;48.148;-1.554;2023-10-08T11:05:58;101843.78;;;20.88;68.36
46464;BME280;32161;48.148;-1.554;2023-10-08T11:08:33;101836.03;;;20.90;69.05
46464;BME280;32161;48.148;-1.554;2023-10-08T11:11:05;101847.38;;;20.88;70.06
46464;BME280;32161;48.148;-1.554;2023-10-08T11:13:36;101839.09;;;20.93;71.62
46464;BME280;32161;48.148;-1.554;2023-10-08T11:16:07;101841.06;;;21.08;70.69
46464;BME280;32161;48.148;-1.554;2023-10-08T11:18:43;101844.69;;;21.19;69.24
46464;BME280;32161;48.148;-1.554;2023-10-08T11:21:13;101849.94;;;21.31;67.53
46464;BME280;32161;48.148;-1.554;2023-10-08T11:23:51;101850.25;;;21.34;68.71
46464;BME280;32161;48.148;-1.554;2023-10-08T11:26:26;101843.88;;;21.39;67.12
46464;BME280;32161;48.148;-1.554;2023-10-08T11:29:06;101834.47;;;21.55;65.02
46464;BME280;32161;48.148;-1.554;2023-10-08T11:31:41;101838.34;;;21.69;63.50
46464;BME280;32161;48.148;-1.554;2023-10-08T11:34:11;101831.69;;;21.70;66.26
46464;BME280;32161;48.148;-1.554;2023-10-08T11:36:40;101833.63;;;21.80;65.67
46464;BME280;32161;48.148;-1.554;2023-10-08T11:39:20;101825.31;;;21.75;65.40
46464;BME280;32161;48.148;-1.554;2023-10-08T11:41:57;101829.19;;;21.89;65.73
46464;BME280;32161;48.148;-1.554;2023-10-08T11:44:30;101819.47;;;21.97;62.58
46464;BME280;32161;48.148;-1.554;2023-10-08T11:46:59;101809.75;;;22.05;62.82
46464;BME280;32161;48.148;-1.554;2023-10-08T11:49:37;101816.13;;;22.05;63.26
46464;BME280;32161;48.148;-1.554;2023-10-08T11:52:13;101807.25;;;22.18;63.20
46464;BME280;32161;48.148;-1.554;2023-10-08T11:54:44;101804.16;;;22.25;64.34
46464;BME280;32161;48.148;-1.554;2023-10-08T11:57:14;101804.38;;;22.44;64.14
46464;BME280;32161;48.148;-1.554;2023-10-08T11:59:45;101797.41;;;22.57;61.83
46464;BME280;32161;48.148;-1.554;2023-10-08T12:02:13;101793.19;;;22.64;63.17
46464;BME280;32161;48.148;-1.554;2023-10-08T12:04:43;101792.75;;;22.86;60.79
46464;BME280;32161;48.148;-1.554;2023-10-08T12:07:11;101789.72;;;22.83;59.82
46464;BME280;32161;48.148;-1.554;2023-10-08T12:09:39;101780.63;;;22.77;61.51
46464;BME280;32161;48.148;-1.554;2023-10-08T12:12:08;101784.22;;;22.78;62.15
46464;BME280;32161;48.148;-1.554;2023-10-08T12:14:39;101777.28;;;22.80;62.51
46464;BME280;32161;48.148;-1.554;2023-10-08T12:17:10;101772.25;;;22.87;60.37
46464;BME280;32161;48.148;-1.554;2023-10-08T12:19:38;101773.34;;;22.86;60.02
46464;BME280;32161;48.148;-1.554;2023-10-08T12:22:09;101774.72;;;22.94;59.46
46464;BME280;32161;48.148;-1.554;2023-10-08T12:24:41;101769.69;;;23.01;56.85
46464;BME280;32161;48.148;-1.554;2023-10-08T12:27:11;101770.13;;;23.13;56.86
46464;BME280;32161;48.148;-1.554;2023-10-08T12:29:39;101764.50;;;23.24;56.87
46464;BME280;32161;48.148;-1.554;2023-10-08T12:32:08;101761.97;;;23.27;58.99
46464;BME280;32161;48.148;-1.554;2023-10-08T12:34:43;101762.16;;;23.36;60.46
46464;BME280;32161;48.148;-1.554;2023-10-08T12:37:11;101757.44;;;23.36;58.35
46464;BME280;32161;48.148;-1.554;2023-10-08T12:39:40;101764.31;;;23.44;58.39
46464;BME280;32161;48.148;-1.554;2023-10-08T12:42:27;101764.56;;;23.48;57.02
46464;BME280;32161;48.148;-1.554;2023-10-08T12:44:56;101761.50;;;23.49;57.19
46464;BME280;32161;48.148;-1.554;2023-10-08T12:47:26;101761.44;;;23.54;55.49
46464;BME280;32161;48.148;-1.554;2023-10-08T12:49:54;101761.44;;;23.54;56.57
46464;BME280;32161;48.148;-1.554;2023-10-08T12:52:24;101754.13;;;23.69;56.61
46464;BME280;32161;48.148;-1.554;2023-10-08T12:54:54;101754.63;;;23.71;56.61
46464;BME280;32161;48.148;-1.554;2023-10-08T12:57:25;101752.88;;;23.80;55.71
46464;BME280;32161;48.148;-1.554;2023-10-08T12:59:58;101757.78;;;23.88;56.21